createdAt,value
2023-05-07T04:55:05.600Z,10.06
2023-05-07T06:43:10.487Z,15.58
2023-05-07T06:45:15.852Z,15.64
2023-05-07T06:46:17.303Z,15.95
2023-05-07T06:48:35.651Z,16.44
2023-05-07T06:49:37.154Z,16.60
2023-05-07T06:50:38.535Z,16.55
2023-05-07T06:51:40.036Z,16.49
2023-05-07T06:52:41.452Z,16.73
2023-05-07T06:53:42.831Z,16.77
2023-05-07T06:54:44.176Z,16.84
2023-05-07T06:55:45.577Z,16.76
2023-05-07T06:56:46.956Z,16.96
2023-05-07T06:57:48.451Z,17.15
2023-05-07T06:58:50.059Z,17.18
2023-05-07T06:59:51.463Z,17.11
2023-05-07T07:00:52.813Z,17.17
2023-05-07T07:01:54.309Z,17.16
2023-05-07T07:02:56.578Z,17.26
2023-05-07T07:03:58.162Z,17.52
2023-05-07T07:04:59.523Z,17.83
2023-05-07T07:06:03.221Z,17.71
2023-05-07T07:07:04.623Z,17.97
2023-05-07T07:08:06.124Z,18.19
2023-05-07T07:09:07.613Z,18.17
2023-05-07T07:10:09.662Z,18.40
2023-05-07T07:11:11.520Z,18.44
2023-05-07T07:12:12.887Z,18.57
2023-05-07T07:13:14.911Z,18.48
2023-05-07T07:14:16.439Z,18.63
2023-05-07T07:15:17.836Z,18.64
2023-05-07T07:16:19.400Z,18.34
2023-05-07T07:17:20.830Z,18.63
2023-05-07T07:18:22.255Z,18.27
2023-05-07T07:19:23.751Z,18.31
2023-05-07T07:20:25.383Z,18.51
2023-05-07T07:21:26.941Z,18.48
2023-05-07T07:22:28.327Z,18.24
2023-05-07T07:23:29.661Z,18.12
2023-05-07T07:24:30.999Z,17.94
2023-05-07T07:25:32.863Z,18.06
2023-05-07T07:26:34.303Z,17.86
2023-05-07T07:27:35.920Z,17.78
2023-05-07T07:28:45.161Z,17.78
2023-05-07T07:29:46.845Z,17.27
2023-05-07T07:30:48.390Z,16.98
2023-05-07T07:33:03.555Z,16.36
2023-05-07T07:41:08.599Z,16.98
2023-05-07T07:43:10.055Z,17.22
2023-05-07T07:44:15.658Z,17.32
2023-05-07T07:46:25.101Z,17.06
2023-05-07T07:47:26.684Z,17.14
2023-05-07T07:48:28.094Z,17.11
2023-05-07T07:49:29.580Z,17.16
2023-05-07T07:50:43.451Z,17.29
2023-05-07T07:51:46.903Z,17.30
2023-05-07T07:52:49.284Z,17.44
2023-05-07T07:53:50.767Z,17.67
2023-05-07T07:54:52.100Z,17.93
2023-05-07T07:55:58.019Z,17.83
2023-05-07T07:57:00.749Z,17.98
2023-05-07T07:58:02.120Z,18.25
2023-05-07T07:59:03.507Z,18.60
2023-05-07T08:00:07.202Z,18.52
2023-05-07T08:01:08.542Z,18.68
2023-05-07T08:02:10.160Z,18.71
2023-05-07T08:03:12.071Z,18.81
2023-05-07T08:04:13.793Z,18.81
2023-05-07T08:05:16.306Z,18.76
2023-05-07T08:07:16.107Z,18.73
2023-05-07T08:08:17.528Z,18.80
2023-05-07T08:09:19.019Z,18.84
2023-05-07T08:11:22.814Z,18.29
2023-05-07T08:12:24.476Z,18.65
2023-05-07T08:13:26.087Z,18.92
2023-05-07T08:14:29.227Z,18.88
2023-05-07T08:15:31.238Z,18.67
2023-05-07T08:16:32.866Z,18.73
2023-05-07T08:17:34.442Z,18.17
2023-05-07T08:18:35.834Z,18.76
2023-05-07T08:19:37.497Z,19.15
2023-05-07T08:20:40.508Z,19.31
2023-05-07T08:21:41.976Z,18.99
2023-05-07T08:22:43.381Z,18.88
2023-05-07T08:23:44.840Z,18.94
2023-05-07T08:24:46.358Z,19.12
2023-05-07T08:25:47.784Z,19.47
2023-05-07T08:26:49.197Z,19.66
2023-05-07T08:27:50.689Z,19.76
2023-05-07T08:28:52.154Z,19.95
2023-05-07T08:29:54.232Z,19.93
2023-05-07T08:30:57.571Z,19.79
2023-05-07T08:31:59.040Z,20.35
2023-05-07T08:33:01.563Z,20.38
2023-05-07T08:34:04.630Z,20.28
2023-05-07T08:35:06.460Z,20.35
2023-05-07T08:36:08.082Z,20.49
2023-05-07T08:37:09.516Z,20.60
2023-05-07T08:38:10.966Z,20.53
2023-05-07T08:39:12.353Z,20.81
2023-05-07T08:40:14.673Z,21.05
2023-05-07T08:41:16.764Z,21.27
2023-05-07T08:42:19.023Z,21.23
2023-05-07T08:43:20.858Z,20.94
2023-05-07T08:44:23.901Z,20.74
2023-05-07T08:45:26.473Z,20.58
2023-05-07T08:46:32.635Z,20.50
2023-05-07T08:47:43.380Z,20.77
2023-05-07T08:48:45.532Z,20.73
2023-05-07T08:49:47.489Z,20.24
2023-05-07T08:50:48.961Z,20.66
2023-05-07T08:51:50.761Z,21.04
2023-05-07T08:52:52.258Z,21.15
2023-05-07T08:53:53.648Z,21.56
2023-05-07T08:54:55.029Z,21.67
2023-05-07T08:55:57.232Z,21.56
2023-05-07T08:56:58.797Z,21.44
2023-05-07T08:58:01.736Z,21.64
2023-05-07T08:59:04.747Z,21.49
2023-05-07T09:00:08.159Z,21.41
2023-05-07T09:01:17.289Z,21.87
2023-05-07T09:02:19.326Z,21.25
2023-05-07T09:03:21.008Z,20.78
2023-05-07T09:04:22.548Z,21.09
2023-05-07T09:05:23.934Z,21.43
2023-05-07T09:06:25.744Z,21.41
2023-05-07T09:07:27.930Z,21.77
2023-05-07T09:08:30.340Z,21.54
2023-05-07T09:09:34.540Z,21.52
2023-05-07T09:10:35.933Z,21.74
2023-05-07T09:11:37.273Z,21.68
2023-05-07T09:12:40.152Z,21.71
2023-05-07T09:13:41.565Z,21.83
2023-05-07T09:14:43.013Z,21.85
2023-05-07T09:15:44.572Z,21.78
2023-05-07T09:16:47.493Z,21.71
2023-05-07T09:17:49.085Z,22.06
2023-05-07T09:18:54.689Z,22.30
2023-05-07T09:19:56.343Z,22.46
2023-05-07T09:20:57.695Z,22.58
2023-05-07T09:22:04.293Z,22.04
2023-05-07T09:23:07.757Z,22.17
2023-05-07T09:24:09.232Z,22.30
2023-05-07T09:25:11.095Z,22.44
2023-05-07T09:26:13.051Z,22.64
2023-05-07T09:27:14.647Z,22.74
2023-05-07T09:28:16.015Z,22.93
2023-05-07T09:29:18.409Z,22.89
2023-05-07T09:30:19.853Z,23.18
2023-05-07T09:31:21.860Z,23.34
2023-05-07T09:32:23.583Z,22.96
2023-05-07T09:33:28.629Z,23.03
2023-05-07T09:34:31.427Z,22.40
2023-05-07T09:35:32.857Z,22.56
2023-05-07T09:36:34.399Z,22.57
2023-05-07T09:37:37.166Z,22.70
2023-05-07T09:38:39.471Z,22.97
2023-05-07T09:39:48.338Z,23.08
2023-05-07T09:41:04.016Z,23.19
2023-05-07T09:42:05.706Z,22.71
2023-05-07T09:43:12.508Z,23.54
2023-05-07T09:44:15.412Z,23.79
2023-05-07T09:45:27.311Z,23.67
2023-05-07T09:46:31.791Z,23.64
2023-05-07T09:47:33.610Z,23.52
2023-05-07T09:48:40.139Z,23.63
2023-05-07T09:49:45.964Z,23.20
2023-05-07T09:50:55.823Z,22.64
2023-05-07T09:51:58.750Z,22.29
2023-05-07T09:53:00.609Z,22.67
2023-05-07T09:54:04.429Z,22.43
2023-05-07T09:55:07.113Z,21.74
2023-05-07T09:56:08.757Z,22.29
2023-05-07T09:57:12.813Z,21.67
2023-05-07T09:58:17.349Z,21.26
2023-05-07T09:59:21.442Z,21.32
2023-05-07T10:00:24.006Z,21.39
2023-05-07T10:01:26.751Z,21.48
2023-05-07T10:02:31.738Z,21.74
2023-05-07T10:03:36.345Z,21.60
2023-05-07T10:04:38.056Z,21.43
2023-05-07T10:05:40.210Z,21.71
2023-05-07T10:06:42.811Z,21.48
2023-05-07T10:07:45.417Z,21.62
2023-05-07T10:08:47.801Z,22.09
2023-05-07T10:09:49.437Z,22.33
2023-05-07T10:10:51.190Z,22.37
2023-05-07T10:11:53.742Z,22.50
2023-05-07T10:12:55.958Z,22.23
2023-05-07T10:13:57.827Z,22.06
2023-05-07T10:14:59.261Z,21.98
2023-05-07T10:16:00.968Z,21.76
2023-05-07T10:17:03.565Z,21.44
2023-05-07T10:18:07.278Z,21.84
2023-05-07T10:19:13.303Z,22.01
2023-05-07T10:20:14.771Z,21.79
2023-05-07T10:21:21.000Z,21.86
2023-05-07T10:22:23.524Z,22.23
2023-05-07T10:23:26.450Z,22.04
2023-05-07T10:24:33.665Z,22.05
2023-05-07T10:25:35.445Z,21.98
2023-05-07T10:26:37.939Z,21.83
2023-05-07T10:27:40.102Z,21.92
2023-05-07T10:28:45.793Z,22.20
2023-05-07T10:30:22.763Z,22.39
2023-05-07T10:31:59.494Z,21.91
2023-05-07T10:33:07.193Z,21.83
2023-05-07T10:34:13.253Z,22.06
2023-05-07T10:35:26.971Z,22.25
2023-05-07T10:36:28.887Z,22.16
2023-05-07T10:37:31.056Z,22.38
2023-05-07T10:38:32.585Z,22.05
2023-05-07T10:39:34.027Z,22.24
2023-05-07T10:40:35.838Z,22.45
2023-05-07T10:41:37.983Z,22.62
2023-05-07T10:42:39.521Z,22.53
2023-05-07T10:43:43.040Z,22.61
2023-05-07T10:44:44.687Z,22.55
2023-05-07T10:46:18.942Z,22.51
2023-05-07T10:47:20.459Z,22.46
2023-05-07T10:48:30.352Z,22.46
2023-05-07T10:49:32.232Z,22.49
2023-05-07T10:50:34.017Z,22.53
2023-05-07T10:51:36.370Z,22.50
2023-05-07T10:52:38.072Z,22.44
2023-05-07T10:53:39.587Z,22.46
2023-05-07T10:54:41.217Z,22.43
2023-05-07T10:55:42.608Z,22.39
2023-05-07T10:56:44.588Z,22.30
2023-05-07T10:57:45.930Z,22.24
2023-05-07T10:58:47.558Z,22.24
2023-05-07T10:59:48.981Z,22.27
2023-05-07T11:00:50.798Z,21.90
2023-05-07T11:01:54.210Z,21.89
2023-05-07T11:03:01.519Z,21.77
2023-05-07T12:25:21.020Z,19.55
2023-05-07T12:27:55.114Z,19.34
2023-05-07T12:30:39.480Z,19.11
